sensor_id;sensor_type;location;lat;lon;timestamp;temperature;humidity
12700;DHT22;6414;49.570;6.060;2023-01-28T00:00:53;1.70;99.90
12700;DHT22;6414;49.570;6.060;2023-01-28T00:03:39;1.70;99.90
12700;DHT22;6414;49.570;6.060;2023-01-28T00:06:25;1.70;99.90
12700;DHT22;6414;49.570;6.060;2023-01-28T00:09:10;1.70;99.90
12700;DHT22;6414;49.570;6.060;2023-01-28T00:11:56;1.70;99.90
12700;DHT22;6414;49.570;6.060;2023-01-28T00:14:41;1.60;99.90
12700;DHT22;6414;49.570;6.060;2023-01-28T00:17:27;1.70;99.90
12700;DHT22;6414;49.570;6.060;2023-01-28T00:20:14;1.70;99.90
12700;DHT22;6414;49.570;6.060;2023-01-28T00:23:00;1.70;99.90
12700;DHT22;6414;49.570;6.060;2023-01-28T00:25:45;1.70;99.90
12700;DHT22;6414;49.570;6.060;2023-01-28T00:28:30;1.60;99.90
12700;DHT22;6414;49.570;6.060;2023-01-28T00:31:22;1.70;99.90
12700;DHT22;6414;49.570;6.060;2023-01-28T00:34:07;1.70;99.90
12700;DHT22;6414;49.570;6.060;2023-01-28T00:36:52;1.70;99.90
12700;DHT22;6414;49.570;6.060;2023-01-28T00:39:43;1.60;99.90
12700;DHT22;6414;49.570;6.060;2023-01-28T00:42:29;1.60;99.90
12700;DHT22;6414;49.570;6.060;2023-01-28T00:45:14;1.60;99.90
12700;DHT22;6414;49.570;6.060;2023-01-28T00:48:00;1.60;99.90
12700;DHT22;6414;49.570;6.060;2023-01-28T00:50:46;1.60;99.90
12700;DHT22;6414;49.570;6.060;2023-01-28T00:53:31;1.60;99.90
12700;DHT22;6414;49.570;6.060;2023-01-28T00:56:17;1.50;99.90
12700;DHT22;6414;49.570;6.060;2023-01-28T00:59:02;1.50;99.90
12700;DHT22;6414;49.570;6.060;2023-01-28T01:01:48;1.50;99.90
12700;DHT22;6414;49.570;6.060;2023-01-28T01:04:33;1.60;99.90
12700;DHT22;6414;49.570;6.060;2023-01-28T01:07:18;1.50;99.90
12700;DHT22;6414;49.570;6.060;2023-01-28T01:10:04;1.50;99.90
12700;DHT22;6414;49.570;6.060;2023-01-28T01:12:49;1.50;99.90
12700;DHT22;6414;49.570;6.060;2023-01-28T01:15:35;1.40;99.90
12700;DHT22;6414;49.570;6.060;2023-01-28T01:18:20;1.40;99.90
12700;DHT22;6414;49.570;6.060;2023-01-28T01:21:07;1.40;99.90
12700;DHT22;6414;49.570;6.060;2023-01-28T01:23:52;1.40;99.90
12700;DHT22;6414;49.570;6.060;2023-01-28T01:26:37;1.30;99.90
12700;DHT22;6414;49.570;6.060;2023-01-28T01:29:23;1.40;99.90
12700;DHT22;6414;49.570;6.060;2023-01-28T01:32:08;1.40;99.90
12700;DHT22;6414;49.570;6.060;2023-01-28T01:34:54;1.40;99.90
12700;DHT22;6414;49.570;6.060;2023-01-28T01:37:42;1.30;99.90
12700;DHT22;6414;49.570;6.060;2023-01-28T01:40:27;1.30;99.90
12700;DHT22;6414;49.570;6.060;2023-01-28T01:43:18;1.30;99.90
12700;DHT22;6414;49.570;6.060;2023-01-28T01:45:59;1.30;99.90
12700;DHT22;6414;49.570;6.060;2023-01-28T01:48:45;1.30;99.90
12700;DHT22;6414;49.570;6.060;2023-01-28T01:51:31;1.30;99.90
12700;DHT22;6414;49.570;6.060;2023-01-28T01:54:16;1.30;99.90
12700;DHT22;6414;49.570;6.060;2023-01-28T01:57:02;1.30;99.90
12700;DHT22;6414;49.570;6.060;2023-01-28T01:59:47;1.30;99.90
12700;DHT22;6414;49.570;6.060;2023-01-28T02:02:38;1.30;99.90
12700;DHT22;6414;49.570;6.060;2023-01-28T02:05:20;1.30;99.90
12700;DHT22;6414;49.570;6.060;2023-01-28T02:08:04;1.40;99.90
12700;DHT22;6414;49.570;6.060;2023-01-28T02:11:07;1.30;99.90
12700;DHT22;6414;49.570;6.060;2023-01-28T02:13:54;1.30;99.90
12700;DHT22;6414;49.570;6.060;2023-01-28T02:16:40;1.30;99.90
12700;DHT22;6414;49.570;6.060;2023-01-28T02:19:26;1.40;99.90
12700;DHT22;6414;49.570;6.060;2023-01-28T02:25:38;1.30;99.90
12700;DHT22;6414;49.570;6.060;2023-01-28T02:28:34;1.20;99.90
12700;DHT22;6414;49.570;6.060;2023-01-28T02:31:22;1.30;99.90
12700;DHT22;6414;49.570;6.060;2023-01-28T02:34:16;1.30;99.90
12700;DHT22;6414;49.570;6.060;2023-01-28T02:37:20;1.30;99.90
12700;DHT22;6414;49.570;6.060;2023-01-28T02:40:08;1.30;99.90
12700;DHT22;6414;49.570;6.060;2023-01-28T02:42:50;1.30;99.90
12700;DHT22;6414;49.570;6.060;2023-01-28T02:45:35;1.20;99.90
12700;DHT22;6414;49.570;6.060;2023-01-28T02:48:39;1.20;99.90
12700;DHT22;6414;49.570;6.060;2023-01-28T02:54:28;1.20;99.90
12700;DHT22;6414;49.570;6.060;2023-01-28T02:57:31;1.20;99.90
12700;DHT22;6414;49.570;6.060;2023-01-28T03:00:22;1.10;99.90
12700;DHT22;6414;49.570;6.060;2023-01-28T03:03:25;1.10;99.90
12700;DHT22;6414;49.570;6.060;2023-01-28T03:06:09;1.20;99.90
12700;DHT22;6414;49.570;6.060;2023-01-28T03:08:58;1.10;99.90
12700;DHT22;6414;49.570;6.060;2023-01-28T03:15:13;1.10;99.90
12700;DHT22;6414;49.570;6.060;2023-01-28T03:18:35;1.10;99.90
12700;DHT22;6414;49.570;6.060;2023-01-28T03:21:38;1.10;99.90
12700;DHT22;6414;49.570;6.060;2023-01-28T03:24:47;1.10;99.90
12700;DHT22;6414;49.570;6.060;2023-01-28T03:27:58;1.20;99.90
12700;DHT22;6414;49.570;6.060;2023-01-28T03:31:02;1.10;99.90
12700;DHT22;6414;49.570;6.060;2023-01-28T03:34:04;1.20;99.90
12700;DHT22;6414;49.570;6.060;2023-01-28T03:37:08;1.20;99.90
12700;DHT22;6414;49.570;6.060;2023-01-28T03:39:54;1.20;99.90
12700;DHT22;6414;49.570;6.060;2023-01-28T03:42:40;1.20;99.90
12700;DHT22;6414;49.570;6.060;2023-01-28T03:45:25;1.20;99.90
12700;DHT22;6414;49.570;6.060;2023-01-28T03:48:11;1.20;99.90
12700;DHT22;6414;49.570;6.060;2023-01-28T03:50:57;1.20;99.90
12700;DHT22;6414;49.570;6.060;2023-01-28T03:53:43;1.20;99.90
12700;DHT22;6414;49.570;6.060;2023-01-28T03:56:28;1.30;99.90
12700;DHT22;6414;49.570;6.060;2023-01-28T03:59:14;1.20;99.90
12700;DHT22;6414;49.570;6.060;2023-01-28T04:01:59;1.20;99.90
12700;DHT22;6414;49.570;6.060;2023-01-28T04:04:44;1.30;99.90
12700;DHT22;6414;49.570;6.060;2023-01-28T04:07:30;1.30;99.90
12700;DHT22;6414;49.570;6.060;2023-01-28T04:10:16;1.20;99.90
12700;DHT22;6414;49.570;6.060;2023-01-28T04:13:02;1.20;99.90
12700;DHT22;6414;49.570;6.060;2023-01-28T04:15:49;1.20;99.90
12700;DHT22;6414;49.570;6.060;2023-01-28T04:18:34;1.20;99.90
12700;DHT22;6414;49.570;6.060;2023-01-28T04:21:20;1.20;99.90
12700;DHT22;6414;49.570;6.060;2023-01-28T04:24:06;1.10;99.90
12700;DHT22;6414;49.570;6.060;2023-01-28T04:26:51;1.10;99.90
12700;DHT22;6414;49.570;6.060;2023-01-28T04:29:37;1.00;99.90
12700;DHT22;6414;49.570;6.060;2023-01-28T04:32:23;1.00;99.90
12700;DHT22;6414;49.570;6.060;2023-01-28T04:35:09;1.00;99.90
12700;DHT22;6414;49.570;6.060;2023-01-28T04:37:54;1.00;99.90
12700;DHT22;6414;49.570;6.060;2023-01-28T04:40:40;1.00;99.90
12700;DHT22;6414;49.570;6.060;2023-01-28T04:43:26;1.10;99.90
12700;DHT22;6414;49.570;6.060;2023-01-28T04:46:11;1.10;99.90
12700;DHT22;6414;49.570;6.060;2023-01-28T04:48:57;1.10;99.90
12700;DHT22;6414;49.570;6.060;2023-01-28T04:51:43;1.10;99.90
12700;DHT22;6414;49.570;6.060;2023-01-28T04:54:28;1.10;99.90
12700;DHT22;6414;49.570;6.060;2023-01-28T04:57:14;1.10;99.90
12700;DHT22;6414;49.570;6.060;2023-01-28T04:59:59;1.10;99.90
12700;DHT22;6414;49.570;6.060;2023-01-28T05:02:44;1.10;99.90
12700;DHT22;6414;49.570;6.060;2023-01-28T05:05:30;1.20;99.90
12700;DHT22;6414;49.570;6.060;2023-01-28T05:08:15;1.20;99.90
12700;DHT22;6414;49.570;6.060;2023-01-28T05:11:01;1.20;99.90
12700;DHT22;6414;49.570;6.060;2023-01-28T05:13:47;1.10;99.90
12700;DHT22;6414;49.570;6.060;2023-01-28T05:16:33;1.20;99.90
12700;DHT22;6414;49.570;6.060;2023-01-28T05:19:18;1.20;99.90
12700;DHT22;6414;49.570;6.060;2023-01-28T05:22:03;1.20;99.90
12700;DHT22;6414;49.570;6.060;2023-01-28T05:24:49;1.10;99.90
12700;DHT22;6414;49.570;6.060;2023-01-28T05:27:35;1.10;99.90
12700;DHT22;6414;49.570;6.060;2023-01-28T05:30:20;1.10;99.90
12700;DHT22;6414;49.570;6.060;2023-01-28T05:33:06;1.20;99.90
12700;DHT22;6414;49.570;6.060;2023-01-28T05:35:51;1.10;99.90
12700;DHT22;6414;49.570;6.060;2023-01-28T05:38:37;1.10;99.90
12700;DHT22;6414;49.570;6.060;2023-01-28T05:41:23;1.20;99.90
12700;DHT22;6414;49.570;6.060;2023-01-28T05:44:08;1.20;99.90
12700;DHT22;6414;49.570;6.060;2023-01-28T05:46:53;1.20;99.90
12700;DHT22;6414;49.570;6.060;2023-01-28T05:49:39;1.10;99.90
12700;DHT22;6414;49.570;6.060;2023-01-28T05:52:24;1.20;99.90
12700;DHT22;6414;49.570;6.060;2023-01-28T05:55:10;1.20;99.90
12700;DHT22;6414;49.570;6.060;2023-01-28T05:57:56;1.20;99.90
12700;DHT22;6414;49.570;6.060;2023-01-28T06:00:43;1.20;99.90
12700;DHT22;6414;49.570;6.060;2023-01-28T06:03:29;1.20;99.90
12700;DHT22;6414;49.570;6.060;2023-01-28T06:06:14;1.30;99.90
12700;DHT22;6414;49.570;6.060;2023-01-28T06:09:00;1.20;99.90
12700;DHT22;6414;49.570;6.060;2023-01-28T06:11:45;1.10;99.90
12700;DHT22;6414;49.570;6.060;2023-01-28T06:14:30;1.20;99.90
12700;DHT22;6414;49.570;6.060;2023-01-28T06:17:16;1.20;99.90
12700;DHT22;6414;49.570;6.060;2023-01-28T06:20:01;1.20;99.90
12700;DHT22;6414;49.570;6.060;2023-01-28T06:22:49;1.20;99.90
12700;DHT22;6414;49.570;6.060;2023-01-28T06:25:33;1.30;99.90
12700;DHT22;6414;49.570;6.060;2023-01-28T06:28:18;1.20;99.90
12700;DHT22;6414;49.570;6.060;2023-01-28T06:31:04;1.30;99.90
12700;DHT22;6414;49.570;6.060;2023-01-28T06:33:50;1.30;99.90
12700;DHT22;6414;49.570;6.060;2023-01-28T06:36:36;1.40;99.90
12700;DHT22;6414;49.570;6.060;2023-01-28T06:39:24;1.30;99.90
12700;DHT22;6414;49.570;6.060;2023-01-28T06:42:09;1.30;99.90
12700;DHT22;6414;49.570;6.060;2023-01-28T06:44:54;1.30;99.90
12700;DHT22;6414;49.570;6.060;2023-01-28T06:47:40;1.40;99.90
12700;DHT22;6414;49.570;6.060;2023-01-28T06:50:25;1.30;99.90
12700;DHT22;6414;49.570;6.060;2023-01-28T06:53:11;1.30;99.90
12700;DHT22;6414;49.570;6.060;2023-01-28T06:55:56;1.20;99.90
12700;DHT22;6414;49.570;6.060;2023-01-28T06:58:41;1.20;99.90
12700;DHT22;6414;49.570;6.060;2023-01-28T07:01:27;1.20;99.90
12700;DHT22;6414;49.570;6.060;2023-01-28T07:04:13;1.30;99.90
12700;DHT22;6414;49.570;6.060;2023-01-28T07:06:59;1.20;99.90
12700;DHT22;6414;49.570;6.060;2023-01-28T07:09:45;1.20;99.90
12700;DHT22;6414;49.570;6.060;2023-01-28T07:12:30;1.20;99.90
12700;DHT22;6414;49.570;6.060;2023-01-28T07:15:16;1.30;99.90
12700;DHT22;6414;49.570;6.060;2023-01-28T07:18:02;1.20;99.90
12700;DHT22;6414;49.570;6.060;2023-01-28T07:20:48;1.20;99.90
12700;DHT22;6414;49.570;6.060;2023-01-28T07:23:33;1.20;99.90
12700;DHT22;6414;49.570;6.060;2023-01-28T07:26:18;1.20;99.90
12700;DHT22;6414;49.570;6.060;2023-01-28T07:29:04;1.20;99.90
12700;DHT22;6414;49.570;6.060;2023-01-28T07:31:49;1.10;99.90
12700;DHT22;6414;49.570;6.060;2023-01-28T07:34:35;1.10;99.90
12700;DHT22;6414;49.570;6.060;2023-01-28T07:37:20;1.10;99.90
12700;DHT22;6414;49.570;6.060;2023-01-28T07:40:06;1.20;99.90
12700;DHT22;6414;49.570;6.060;2023-01-28T07:42:52;1.10;99.90
12700;DHT22;6414;49.570;6.060;2023-01-28T07:45:37;1.10;99.90
12700;DHT22;6414;49.570;6.060;2023-01-28T07:48:24;1.20;99.90
12700;DHT22;6414;49.570;6.060;2023-01-28T07:51:10;1.20;99.90
12700;DHT22;6414;49.570;6.060;2023-01-28T07:53:56;0.90;99.90
12700;DHT22;6414;49.570;6.060;2023-01-28T07:56:42;0.90;99.90
12700;DHT22;6414;49.570;6.060;2023-01-28T07:59:27;0.80;99.90
12700;DHT22;6414;49.570;6.060;2023-01-28T08:02:12;0.80;99.90
12700;DHT22;6414;49.570;6.060;2023-01-28T08:04:58;0.70;99.90
12700;DHT22;6414;49.570;6.060;2023-01-28T08:07:44;0.70;99.90
12700;DHT22;6414;49.570;6.060;2023-01-28T08:10:30;0.70;99.90
12700;DHT22;6414;49.570;6.060;2023-01-28T08:13:16;0.80;99.90
12700;DHT22;6414;49.570;6.060;2023-01-28T08:16:01;0.80;99.90
12700;DHT22;6414;49.570;6.060;2023-01-28T08:18:47;0.70;99.90
12700;DHT22;6414;49.570;6.060;2023-01-28T08:21:33;0.70;99.90
12700;DHT22;6414;49.570;6.060;2023-01-28T08:24:19;0.80;99.90
12700;DHT22;6414;49.570;6.060;2023-01-28T08:27:04;0.80;99.90
12700;DHT22;6414;49.570;6.060;2023-01-28T08:29:51;1.10;99.90
12700;DHT22;6414;49.570;6.060;2023-01-28T08:32:37;1.10;99.90
12700;DHT22;6414;49.570;6.060;2023-01-28T08:35:26;1.10;99.90
12700;DHT22;6414;49.570;6.060;2023-01-28T08:38:12;1.10;99.90
12700;DHT22;6414;49.570;6.060;2023-01-28T08:40:57;1.10;99.90
12700;DHT22;6414;49.570;6.060;2023-01-28T08:43:43;1.00;99.90
12700;DHT22;6414;49.570;6.060;2023-01-28T08:46:28;1.00;99.90
12700;DHT22;6414;49.570;6.060;2023-01-28T08:49:14;1.10;99.90
12700;DHT22;6414;49.570;6.060;2023-01-28T08:52:00;1.10;99.90
12700;DHT22;6414;49.570;6.060;2023-01-28T08:54:45;1.00;99.90
12700;DHT22;6414;49.570;6.060;2023-01-28T08:57:31;1.10;99.90
12700;DHT22;6414;49.570;6.060;2023-01-28T09:00:17;1.00;99.90
12700;DHT22;6414;49.570;6.060;2023-01-28T09:03:02;1.10;99.90
12700;DHT22;6414;49.570;6.060;2023-01-28T09:05:48;1.30;99.90
12700;DHT22;6414;49.570;6.060;2023-01-28T09:08:33;1.10;99.90
12700;DHT22;6414;49.570;6.060;2023-01-28T09:11:19;1.40;99.90
12700;DHT22;6414;49.570;6.060;2023-01-28T09:14:05;1.50;99.90
12700;DHT22;6414;49.570;6.060;2023-01-28T09:16:51;1.60;99.90
12700;DHT22;6414;49.570;6.060;2023-01-28T09:19:37;1.90;99.90
12700;DHT22;6414;49.570;6.060;2023-01-28T09:22:22;1.40;99.90
12700;DHT22;6414;49.570;6.060;2023-01-28T09:25:08;1.30;99.90
12700;DHT22;6414;49.570;6.060;2023-01-28T09:27:54;1.20;99.90
12700;DHT22;6414;49.570;6.060;2023-01-28T09:30:40;1.40;99.90
12700;DHT22;6414;49.570;6.060;2023-01-28T09:33:25;1.30;99.90
12700;DHT22;6414;49.570;6.060;2023-01-28T09:36:11;1.30;99.90
12700;DHT22;6414;49.570;6.060;2023-01-28T09:38:56;1.20;99.90
12700;DHT22;6414;49.570;6.060;2023-01-28T09:42:20;1.20;99.90
12700;DHT22;6414;49.570;6.060;2023-01-28T09:47:52;1.20;99.90
12700;DHT22;6414;49.570;6.060;2023-01-28T09:50:39;1.20;99.90
12700;DHT22;6414;49.570;6.060;2023-01-28T09:56:21;1.20;99.90
12700;DHT22;6414;49.570;6.060;2023-01-28T09:59:19;1.30;99.90
12700;DHT22;6414;49.570;6.060;2023-01-28T10:02:13;1.30;99.90
12700;DHT22;6414;49.570;6.060;2023-01-28T10:08:24;1.40;99.90
12700;DHT22;6414;49.570;6.060;2023-01-28T10:14:23;1.40;99.90
12700;DHT22;6414;49.570;6.060;2023-01-28T10:23:15;1.70;99.90
12700;DHT22;6414;49.570;6.060;2023-01-28T10:25:49;1.60;99.90
12700;DHT22;6414;49.570;6.060;2023-01-28T10:28:34;1.60;99.90
12700;DHT22;6414;49.570;6.060;2023-01-28T10:31:21;1.70;99.90
12700;DHT22;6414;49.570;6.060;2023-01-28T10:34:05;1.60;99.90
12700;DHT22;6414;49.570;6.060;2023-01-28T10:36:51;1.70;99.90
12700;DHT22;6414;49.570;6.060;2023-01-28T10:39:37;1.60;99.90
12700;DHT22;6414;49.570;6.060;2023-01-28T10:42:33;1.60;99.90
12700;DHT22;6414;49.570;6.060;2023-01-28T10:45:27;1.80;99.90
12700;DHT22;6414;49.570;6.060;2023-01-28T10:48:13;1.70;99.90
12700;DHT22;6414;49.570;6.060;2023-01-28T10:50:58;1.80;99.90
12700;DHT22;6414;49.570;6.060;2023-01-28T10:53:45;1.80;99.90
12700;DHT22;6414;49.570;6.060;2023-01-28T10:56:31;2.00;99.90
12700;DHT22;6414;49.570;6.060;2023-01-28T10:59:29;1.90;99.90
12700;DHT22;6414;49.570;6.060;2023-01-28T11:02:30;1.80;99.90
12700;DHT22;6414;49.570;6.060;2023-01-28T11:05:19;1.80;99.90
12700;DHT22;6414;49.570;6.060;2023-01-28T11:08:04;1.70;99.90
12700;DHT22;6414;49.570;6.060;2023-01-28T11:10:48;1.90;99.90
12700;DHT22;6414;49.570;6.060;2023-01-28T11:13:34;1.80;99.90
12700;DHT22;6414;49.570;6.060;2023-01-28T11:16:20;1.80;99.90
12700;DHT22;6414;49.570;6.060;2023-01-28T11:19:08;1.80;99.90
12700;DHT22;6414;49.570;6.060;2023-01-28T11:21:53;1.70;99.90
12700;DHT22;6414;49.570;6.060;2023-01-28T11:24:37;1.70;99.90
12700;DHT22;6414;49.570;6.060;2023-01-28T11:27:27;1.60;99.90
12700;DHT22;6414;49.570;6.060;2023-01-28T11:30:30;1.80;99.90
12700;DHT22;6414;49.570;6.060;2023-01-28T11:33:20;1.60;99.90
12700;DHT22;6414;49.570;6.060;2023-01-28T11:36:12;1.60;99.90
12700;DHT22;6414;49.570;6.060;2023-01-28T11:38:58;1.60;99.90
12700;DHT22;6414;49.570;6.060;2023-01-28T11:41:43;1.40;99.90
12700;DHT22;6414;49.570;6.060;2023-01-28T11:44:28;1.40;99.90
12700;DHT22;6414;49.570;6.060;2023-01-28T11:59:21;1.70;99.90
12700;DHT22;6414;49.570;6.060;2023-01-28T12:05:15;1.40;99.90
12700;DHT22;6414;49.570;6.060;2023-01-28T12:10:47;1.40;99.90
12700;DHT22;6414;49.570;6.060;2023-01-28T12:22:54;1.40;99.90
12700;DHT22;6414;49.570;6.060;2023-01-28T12:25:53;1.50;79.70
12700;DHT22;6414;49.570;6.060;2023-01-28T12:29:17;1.30;99.90
12700;DHT22;6414;49.570;6.060;2023-01-28T12:31:45;1.30;99.90
12700;DHT22;6414;49.570;6.060;2023-01-28T12:34:47;1.30;99.90
12700;DHT22;6414;49.570;6.060;2023-01-28T12:37:47;1.20;99.90
12700;DHT22;6414;49.570;6.060;2023-01-28T12:40:33;1.30;96.80
12700;DHT22;6414;49.570;6.060;2023-01-28T12:43:21;1.40;97.20
12700;DHT22;6414;49.570;6.060;2023-01-28T12:49:29;1.30;99.90
12700;DHT22;6414;49.570;6.060;2023-01-28T12:52:17;1.30;99.80
12700;DHT22;6414;49.570;6.060;2023-01-28T12:58:06;1.40;95.70
12700;DHT22;6414;49.570;6.060;2023-01-28T13:00:53;1.20;81.90
12700;DHT22;6414;49.570;6.060;2023-01-28T13:03:44;1.20;65.40
12700;DHT22;6414;49.570;6.060;2023-01-28T13:09:18;1.30;99.90
12700;DHT22;6414;49.570;6.060;2023-01-28T13:12:02;1.30;99.90
12700;DHT22;6414;49.570;6.060;2023-01-28T13:14:48;1.20;96.10
12700;DHT22;6414;49.570;6.060;2023-01-28T13:17:33;1.20;20.10
12700;DHT22;6414;49.570;6.060;2023-01-28T13:20:28;1.30;6.40
12700;DHT22;6414;49.570;6.060;2023-01-28T13:23:39;1.40;54.50
12700;DHT22;6414;49.570;6.060;2023-01-28T13:26:35;1.30;1.00
12700;DHT22;6414;49.570;6.060;2023-01-28T13:32:24;1.20;11.90
12700;DHT22;6414;49.570;6.060;2023-01-28T13:34:56;1.20;5.40
12700;DHT22;6414;49.570;6.060;2023-01-28T13:37:36;1.30;1.00
12700;DHT22;6414;49.570;6.060;2023-01-28T13:40:24;1.40;1.00
12700;DHT22;6414;49.570;6.060;2023-01-28T13:43:34;1.40;1.00
12700;DHT22;6414;49.570;6.060;2023-01-28T13:46:25;1.40;1.00
12700;DHT22;6414;49.570;6.060;2023-01-28T13:48:59;1.20;1.00
12700;DHT22;6414;49.570;6.060;2023-01-28T13:51:50;1.10;1.00
12700;DHT22;6414;49.570;6.060;2023-01-28T13:54:30;1.20;1.00
12700;DHT22;6414;49.570;6.060;2023-01-28T14:00:32;1.20;1.00
12700;DHT22;6414;49.570;6.060;2023-01-28T14:03:31;1.10;1.00
12700;DHT22;6414;49.570;6.060;2023-01-28T14:09:56;1.00;1.00
12700;DHT22;6414;49.570;6.060;2023-01-28T14:12:49;1.00;1.00
12700;DHT22;6414;49.570;6.060;2023-01-28T14:15:53;1.10;1.00
12700;DHT22;6414;49.570;6.060;2023-01-28T14:18:24;1.00;1.00
12700;DHT22;6414;49.570;6.060;2023-01-28T14:21:12;1.10;1.00
12700;DHT22;6414;49.570;6.060;2023-01-28T14:23:57;1.10;1.00
12700;DHT22;6414;49.570;6.060;2023-01-28T14:26:52;1.10;1.00
12700;DHT22;6414;49.570;6.060;2023-01-28T14:32:50;1.00;30.70
12700;DHT22;6414;49.570;6.060;2023-01-28T14:35:34;0.90;1.00
12700;DHT22;6414;49.570;6.060;2023-01-28T14:38:20;0.90;1.00
12700;DHT22;6414;49.570;6.060;2023-01-28T14:41:05;0.90;1.00
12700;DHT22;6414;49.570;6.060;2023-01-28T14:43:52;0.80;99.90
12700;DHT22;6414;49.570;6.060;2023-01-28T14:46:44;0.80;1.00
12700;DHT22;6414;49.570;6.060;2023-01-28T14:59:06;0.70;99.90
12700;DHT22;6414;49.570;6.060;2023-01-28T15:01:53;0.70;99.90
12700;DHT22;6414;49.570;6.060;2023-01-28T15:04:35;0.70;99.90
12700;DHT22;6414;49.570;6.060;2023-01-28T15:07:21;0.70;99.90
12700;DHT22;6414;49.570;6.060;2023-01-28T15:10:10;0.70;1.00
12700;DHT22;6414;49.570;6.060;2023-01-28T15:13:39;0.60;99.90
12700;DHT22;6414;49.570;6.060;2023-01-28T15:15:40;0.70;1.00
12700;DHT22;6414;49.570;6.060;2023-01-28T15:18:33;0.70;1.00
12700;DHT22;6414;49.570;6.060;2023-01-28T15:21:19;0.80;99.90
12700;DHT22;6414;49.570;6.060;2023-01-28T15:24:04;0.70;99.90
12700;DHT22;6414;49.570;6.060;2023-01-28T15:26:49;0.70;1.00
12700;DHT22;6414;49.570;6.060;2023-01-28T15:29:36;0.70;99.90
12700;DHT22;6414;49.570;6.060;2023-01-28T15:32:30;0.70;99.90
12700;DHT22;6414;49.570;6.060;2023-01-28T15:35:15;0.70;99.90
12700;DHT22;6414;49.570;6.060;2023-01-28T15:38:01;0.70;99.90
12700;DHT22;6414;49.570;6.060;2023-01-28T15:40:51;0.70;99.90
12700;DHT22;6414;49.570;6.060;2023-01-28T15:43:35;0.60;99.90
12700;DHT22;6414;49.570;6.060;2023-01-28T15:46:20;0.60;1.00
12700;DHT22;6414;49.570;6.060;2023-01-28T15:49:13;0.60;99.90
12700;DHT22;6414;49.570;6.060;2023-01-28T15:51:51;0.80;1.00
12700;DHT22;6414;49.570;6.060;2023-01-28T15:54:38;0.80;99.90
12700;DHT22;6414;49.570;6.060;2023-01-28T15:57:30;0.70;99.90
12700;DHT22;6414;49.570;6.060;2023-01-28T16:00:20;0.80;99.90
12700;DHT22;6414;49.570;6.060;2023-01-28T16:03:09;0.70;99.90
12700;DHT22;6414;49.570;6.060;2023-01-28T16:05:58;0.70;99.90
12700;DHT22;6414;49.570;6.060;2023-01-28T16:08:56;0.70;1.00
12700;DHT22;6414;49.570;6.060;2023-01-28T16:11:41;0.70;1.00
12700;DHT22;6414;49.570;6.060;2023-01-28T16:14:28;0.70;99.90
12700;DHT22;6414;49.570;6.060;2023-01-28T16:17:17;0.60;99.90
12700;DHT22;6414;49.570;6.060;2023-01-28T16:20:03;0.60;99.90
12700;DHT22;6414;49.570;6.060;2023-01-28T16:22:47;0.40;1.00
12700;DHT22;6414;49.570;6.060;2023-01-28T16:25:34;0.40;1.00
12700;DHT22;6414;49.570;6.060;2023-01-28T16:28:18;0.40;1.00
12700;DHT22;6414;49.570;6.060;2023-01-28T16:31:04;0.40;1.00
12700;DHT22;6414;49.570;6.060;2023-01-28T16:33:49;0.30;1.00
12700;DHT22;6414;49.570;6.060;2023-01-28T16:36:35;0.30;1.00
12700;DHT22;6414;49.570;6.060;2023-01-28T16:39:20;0.40;1.00
12700;DHT22;6414;49.570;6.060;2023-01-28T16:42:07;0.40;1.00
12700;DHT22;6414;49.570;6.060;2023-01-28T16:44:52;0.40;1.00
12700;DHT22;6414;49.570;6.060;2023-01-28T16:47:38;0.30;1.00
12700;DHT22;6414;49.570;6.060;2023-01-28T16:50:27;0.20;1.00
12700;DHT22;6414;49.570;6.060;2023-01-28T16:53:22;0.20;1.00
12700;DHT22;6414;49.570;6.060;2023-01-28T16:56:04;0.20;1.00
12700;DHT22;6414;49.570;6.060;2023-01-28T16:58:49;0.20;1.00
12700;DHT22;6414;49.570;6.060;2023-01-28T17:01:34;0.20;1.00
12700;DHT22;6414;49.570;6.060;2023-01-28T17:04:20;0.40;1.00
12700;DHT22;6414;49.570;6.060;2023-01-28T17:07:06;0.40;1.00
12700;DHT22;6414;49.570;6.060;2023-01-28T17:09:51;0.30;1.00
12700;DHT22;6414;49.570;6.060;2023-01-28T17:12:37;0.20;1.00
12700;DHT22;6414;49.570;6.060;2023-01-28T17:15:23;0.10;1.00
12700;DHT22;6414;49.570;6.060;2023-01-28T17:18:09;0.10;1.00
12700;DHT22;6414;49.570;6.060;2023-01-28T17:20:58;0.20;1.00
12700;DHT22;6414;49.570;6.060;2023-01-28T17:23:40;0.30;1.00
12700;DHT22;6414;49.570;6.060;2023-01-28T17:26:25;0.40;1.00
12700;DHT22;6414;49.570;6.060;2023-01-28T17:29:10;0.40;1.00
12700;DHT22;6414;49.570;6.060;2023-01-28T17:31:56;0.50;1.00
12700;DHT22;6414;49.570;6.060;2023-01-28T17:34:43;0.40;1.00
12700;DHT22;6414;49.570;6.060;2023-01-28T17:37:29;0.20;1.00
12700;DHT22;6414;49.570;6.060;2023-01-28T17:40:14;0.20;1.00
12700;DHT22;6414;49.570;6.060;2023-01-28T17:43:00;0.10;1.00
12700;DHT22;6414;49.570;6.060;2023-01-28T17:45:46;0.10;1.00
12700;DHT22;6414;49.570;6.060;2023-01-28T17:48:32;-0.10;1.00
12700;DHT22;6414;49.570;6.060;2023-01-28T17:51:17;0.00;1.00
12700;DHT22;6414;49.570;6.060;2023-01-28T17:54:02;0.10;1.00
12700;DHT22;6414;49.570;6.060;2023-01-28T17:56:48;0.10;1.00
12700;DHT22;6414;49.570;6.060;2023-01-28T17:59:33;-0.10;1.00
12700;DHT22;6414;49.570;6.060;2023-01-28T18:02:18;0.00;1.00
12700;DHT22;6414;49.570;6.060;2023-01-28T18:05:04;0.10;1.00
12700;DHT22;6414;49.570;6.060;2023-01-28T18:07:49;0.10;1.00
12700;DHT22;6414;49.570;6.060;2023-01-28T18:10:35;0.10;1.00
12700;DHT22;6414;49.570;6.060;2023-01-28T18:13:21;-0.10;1.00
12700;DHT22;6414;49.570;6.060;2023-01-28T18:16:07;-0.10;1.00
12700;DHT22;6414;49.570;6.060;2023-01-28T18:18:52;-0.10;1.00
12700;DHT22;6414;49.570;6.060;2023-01-28T18:21:38;0.00;1.00
12700;DHT22;6414;49.570;6.060;2023-01-28T18:24:25;-0.10;1.00
12700;DHT22;6414;49.570;6.060;2023-01-28T18:27:10;-0.10;1.00
12700;DHT22;6414;49.570;6.060;2023-01-28T18:29:55;0.00;1.00
12700;DHT22;6414;49.570;6.060;2023-01-28T18:32:40;-0.10;1.00
12700;DHT22;6414;49.570;6.060;2023-01-28T18:35:26;0.00;5.70
12700;DHT22;6414;49.570;6.060;2023-01-28T18:38:11;0.00;1.00
12700;DHT22;6414;49.570;6.060;2023-01-28T18:40:56;-0.10;1.00
12700;DHT22;6414;49.570;6.060;2023-01-28T18:43:41;0.00;23.70
12700;DHT22;6414;49.570;6.060;2023-01-28T18:46:27;-0.20;87.80
12700;DHT22;6414;49.570;6.060;2023-01-28T18:49:13;-0.30;99.90
12700;DHT22;6414;49.570;6.060;2023-01-28T18:51:59;-0.30;99.90
12700;DHT22;6414;49.570;6.060;2023-01-28T18:54:45;-0.30;99.90
12700;DHT22;6414;49.570;6.060;2023-01-28T18:57:31;-0.20;99.90
12700;DHT22;6414;49.570;6.060;2023-01-28T19:00:17;-0.30;99.90
12700;DHT22;6414;49.570;6.060;2023-01-28T19:03:02;-0.20;91.30
12700;DHT22;6414;49.570;6.060;2023-01-28T19:05:49;-0.20;73.20
12700;DHT22;6414;49.570;6.060;2023-01-28T19:08:34;-0.20;64.50
12700;DHT22;6414;49.570;6.060;2023-01-28T19:11:20;-0.20;71.50
12700;DHT22;6414;49.570;6.060;2023-01-28T19:14:05;-0.20;34.70
12700;DHT22;6414;49.570;6.060;2023-01-28T19:16:50;-0.20;1.00
12700;DHT22;6414;49.570;6.060;2023-01-28T19:19:36;-0.20;1.00
12700;DHT22;6414;49.570;6.060;2023-01-28T19:22:22;-0.20;1.00
12700;DHT22;6414;49.570;6.060;2023-01-28T19:25:08;-0.30;12.90
12700;DHT22;6414;49.570;6.060;2023-01-28T19:27:53;-0.20;40.00
12700;DHT22;6414;49.570;6.060;2023-01-28T19:30:39;-0.30;72.90
12700;DHT22;6414;49.570;6.060;2023-01-28T19:33:24;-0.40;99.90
12700;DHT22;6414;49.570;6.060;2023-01-28T19:36:10;-0.40;99.90
12700;DHT22;6414;49.570;6.060;2023-01-28T19:39:01;-0.50;99.90
12700;DHT22;6414;49.570;6.060;2023-01-28T19:41:45;-0.50;99.90